Time;durP1;ratioP1;P1;durP2;ratioP2;P2;SDS_P1;SDS_P2;PMS_P1;PMS_P2;Temp;Humidity;BMP_temperature;BMP_pressure;BME280_temperature;BME280_humidity;BME280_pressure;Samples;Min_cycle;Max_cycle;Signal;HPM_P1;HPM_P2
2022/02/25 00:01:07;;;;;;;34.23;25.48;;;;;;;15.99;38.54;100126.22;1598278;87;21540;-60
2022/02/25 00:03:35;;;;;;;29.23;23.07;;;;;;;15.97;38.54;100122.33;1593594;87;21654;-60
2022/02/25 00:06:04;;;;;;;27.65;21.33;;;;;;;15.97;38.54;100128.95;1581431;87;21582;-59
2022/02/25 00:08:30;;;;;;;31.07;22.40;;;;;;;15.91;38.67;100127.52;1597784;87;21705;-60
2022/02/25 00:10:56;;;;;;;28.20;21.48;;;;;;;15.85;38.90;100121.24;1583392;88;21594;-59
2022/02/25 00:13:25;;;;;;;28.15;21.65;;;;;;;15.94;38.92;100114.56;1622920;86;21093;-59
2022/02/25 00:15:57;;;;;;;27.32;20.97;;;;;;;15.94;38.93;100113.24;1609421;87;21571;-59
2022/02/25 00:18:26;;;;;;;29.87;21.55;;;;;;;16.00;38.84;100106.73;1622292;86;21461;-59
2022/02/25 00:20:54;;;;;;;29.67;22.65;;;;;;;15.91;38.85;100104.97;1612851;86;21654;-60
2022/02/25 00:23:23;;;;;;;30.65;21.87;;;;;;;15.92;38.82;100098.73;1629472;86;20998;-60
2022/02/25 00:25:51;;;;;;;29.15;21.80;;;;;;;15.96;38.91;100104.24;1615626;86;21594;-60
2022/02/25 00:28:20;;;;;;;26.73;21.55;;;;;;;15.96;38.92;100097.61;1625228;86;21525;-59
2022/02/25 00:30:48;;;;;;;24.67;21.33;;;;;;;16.02;39.00;100091.58;1612578;87;21586;-59
2022/02/25 00:33:17;;;;;;;28.80;23.22;;;;;;;15.92;39.08;100092.11;1622099;86;21471;-59
2022/02/25 00:35:45;;;;;;;29.65;22.22;;;;;;;15.78;39.20;100090.72;1619812;86;21482;-59
2022/02/25 00:38:14;;;;;;;28.40;22.65;;;;;;;15.76;39.20;100083.33;1622269;86;21717;-59
2022/02/25 00:40:42;;;;;;;26.27;21.48;;;;;;;15.85;39.14;100089.91;1619074;86;21822;-59
2022/02/25 00:43:10;;;;;;;27.62;21.23;;;;;;;15.84;39.24;100086.41;1622442;86;21547;-59
2022/02/25 00:45:39;;;;;;;26.15;20.77;;;;;;;15.84;39.38;100086.86;1617620;86;21479;-59
2022/02/25 00:48:07;;;;;;;29.85;21.77;;;;;;;15.90;39.22;100086.05;1623067;86;21629;-59
2022/02/25 00:50:35;;;;;;;29.55;22.40;;;;;;;15.84;39.25;100078.45;1620833;87;21129;-59
2022/02/25 00:53:04;;;;;;;29.07;21.90;;;;;;;15.75;39.30;100073.68;1621668;86;20971;-59
2022/02/25 00:55:31;;;;;;;29.87;23.12;;;;;;;15.78;39.32;100075.29;1618048;86;21565;-59
2022/02/25 00:57:59;;;;;;;27.00;21.57;;;;;;;15.82;39.38;100068.86;1623825;86;21558;-59
2022/02/25 01:00:26;;;;;;;29.40;22.17;;;;;;;15.86;39.29;100073.03;1613236;86;21618;-59
2022/02/25 01:02:53;;;;;;;27.57;21.70;;;;;;;15.82;39.37;100075.01;1607797;87;20986;-59
2022/02/25 01:05:20;;;;;;;30.50;22.30;;;;;;;15.85;39.24;100068.22;1616128;86;21811;-59
2022/02/25 01:07:49;;;;;;;28.73;22.10;;;;;;;15.82;39.19;100067.53;1617314;86;21551;-59
2022/02/25 01:10:16;;;;;;;28.92;22.22;;;;;;;15.68;39.38;100063.85;1624179;86;21499;-59
2022/02/25 01:12:45;;;;;;;26.62;20.88;;;;;;;15.65;39.53;100057.87;1623642;86;21503;-59
2022/02/25 01:15:12;;;;;;;24.98;19.82;;;;;;;15.69;39.59;100056.74;1626297;86;21626;-59
2022/02/25 01:17:40;;;;;;;29.47;21.20;;;;;;;15.81;39.50;100062.71;1619039;86;21814;-58
2022/02/25 01:20:07;;;;;;;30.70;22.85;;;;;;;15.91;39.32;100057.24;1620380;86;21728;-59
2022/02/25 01:22:35;;;;;;;27.87;21.77;;;;;;;15.93;39.16;100063.30;1614940;86;21573;-59
2022/02/25 01:25:02;;;;;;;25.92;20.43;;;;;;;15.98;39.02;100059.56;1629556;86;21542;-59
2022/02/25 01:27:31;;;;;;;25.90;21.33;;;;;;;15.98;38.98;100057.75;1614968;86;21546;-59
2022/02/25 01:29:58;;;;;;;28.70;21.12;;;;;;;16.03;38.93;100053.05;1613719;86;21877;-59
2022/02/25 01:32:24;;;;;;;28.47;20.65;;;;;;;16.00;38.98;100053.69;1617164;86;21451;-59
2022/02/25 01:34:51;;;;;;;27.20;20.50;;;;;;;16.04;38.94;100044.61;1619632;86;21491;-59
2022/02/25 01:37:18;;;;;;;27.17;21.65;;;;;;;16.20;38.76;100044.08;1619297;86;21022;-59
2022/02/25 01:39:45;;;;;;;30.02;20.80;;;;;;;16.22;38.67;100041.31;1621551;87;21482;-59
2022/02/25 01:42:11;;;;;;;28.77;23.17;;;;;;;16.27;38.64;100031.28;1613391;86;21813;-60
2022/02/25 01:44:40;;;;;;;29.23;22.73;;;;;;;16.13;38.77;100034.77;1619707;86;21562;-59
2022/02/25 01:47:08;;;;;;;31.77;22.30;;;;;;;16.01;38.82;100021.78;1624789;86;21463;-59
2022/02/25 01:49:36;;;;;;;25.20;20.50;;;;;;;16.01;38.71;100025.77;1621498;86;21470;-59
2022/02/25 01:52:11;;;;;;;28.63;22.23;;;;;;;16.00;38.87;100027.17;1618710;86;21077;-60
2022/02/25 01:54:38;;;;;;;27.15;21.65;;;;;;;15.85;39.05;100025.80;1588212;87;21585;-59
2022/02/25 01:57:06;;;;;;;27.80;22.25;;;;;;;15.79;39.22;100023.51;1623558;86;21459;-60
2022/02/25 01:59:32;;;;;;;28.25;21.10;;;;;;;15.84;39.22;100016.15;1605753;86;21503;-59
2022/02/25 02:01:59;;;;;;;29.50;20.50;;;;;;;15.90;39.21;100021.56;1623102;86;21589;-58
2022/02/25 02:04:26;;;;;;;29.57;21.05;;;;;;;15.98;39.18;100015.80;1633599;85;21625;-59
2022/02/25 02:06:52;;;;;;;23.35;18.77;;;;;;;15.90;39.35;100016.26;1636305;85;21759;-59
2022/02/25 02:09:19;;;;;;;26.45;20.40;;;;;;;15.92;39.27;100018.34;1635469;84;21018;-59
2022/02/25 02:11:48;;;;;;;25.43;20.80;;;;;;;15.99;39.21;100019.66;1628809;85;21605;-59
2022/02/25 02:14:17;;;;;;;23.85;19.27;;;;;;;16.00;39.24;100013.43;1638592;85;21597;-59
2022/02/25 02:16:49;;;;;;;28.10;21.80;;;;;;;16.08;39.16;100004.53;1631383;85;21629;-59
2022/02/25 02:19:16;;;;;;;23.52;20.17;;;;;;;16.07;39.13;100006.82;1633972;85;21762;-60
2022/02/25 02:21:48;;;;;;;25.60;20.10;;;;;;;15.88;39.19;100001.77;1638944;85;21791;-60
2022/02/25 02:24:15;;;;;;;24.50;19.20;;;;;;;15.88;39.19;100001.77;1628495;85;22167;-60
2022/02/25 02:26:42;;;;;;;25.77;20.80;;;;;;;15.74;39.33;100006.53;1621243;85;21598;-59
2022/02/25 02:29:09;;;;;;;26.30;19.87;;;;;;;15.62;39.67;100003.73;1620719;85;21601;-57
2022/02/25 02:31:36;;;;;;;24.67;20.40;;;;;;;15.70;39.48;99999.67;1636834;85;21824;-57
2022/02/25 02:34:04;;;;;;;26.73;19.30;;;;;;;15.66;39.53;99995.98;1633890;85;21517;-58
2022/02/25 02:36:32;;;;;;;22.90;18.77;;;;;;;15.66;39.57;100005.26;1629392;85;21588;-57
2022/02/25 02:38:58;;;;;;;26.02;20.37;;;;;;;15.62;39.49;100005.05;1634810;85;21648;-57
2022/02/25 02:41:25;;;;;;;25.27;20.45;;;;;;;15.61;39.63;100002.85;1623965;85;21640;-57
2022/02/25 02:43:52;;;;;;;27.73;21.75;;;;;;;15.72;39.56;100006.22;1638156;85;21816;-57
2022/02/25 02:46:19;;;;;;;25.12;19.40;;;;;;;15.77;39.46;100004.19;1623183;85;21569;-58
2022/02/25 02:48:45;;;;;;;27.40;22.07;;;;;;;15.74;39.47;100003.03;1639433;85;21611;-58
2022/02/25 02:51:12;;;;;;;28.47;21.50;;;;;;;15.72;39.46;100003.56;1625316;87;21486;-58
2022/02/25 02:53:40;;;;;;;26.48;19.90;;;;;;;15.66;39.40;100003.93;1634721;85;21542;-58
2022/02/25 02:56:06;;;;;;;26.35;19.90;;;;;;;15.64;39.45;100000.03;1630800;85;21783;-58
2022/02/25 02:58:33;;;;;;;28.63;21.03;;;;;;;15.59;39.43;100006.06;1629123;84;21490;-58
2022/02/25 03:01:00;;;;;;;23.55;17.85;;;;;;;15.62;39.58;100003.25;1595178;85;21989;-58
2022/02/25 03:03:27;;;;;;;27.93;19.42;;;;;;;15.68;39.53;99996.73;1602188;88;21546;-57
2022/02/25 03:05:54;;;;;;;28.47;20.82;;;;;;;15.72;39.35;99997.78;1620720;86;21477;-59
2022/02/25 03:08:22;;;;;;;25.77;19.65;;;;;;;15.73;39.34;100003.52;1618861;86;21590;-58
2022/02/25 03:10:49;;;;;;;26.73;21.00;;;;;;;15.57;39.34;99995.55;1615104;85;21590;-57
2022/02/25 03:13:17;;;;;;;25.82;19.10;;;;;;;15.64;39.42;99995.22;1611902;86;21542;-58
2022/02/25 03:15:45;;;;;;;24.35;19.52;;;;;;;15.69;39.33;99991.80;1584868;86;21527;-59
2022/02/25 03:18:13;;;;;;;24.90;20.10;;;;;;;15.71;39.37;99993.92;1612894;85;21570;-59
2022/02/25 03:20:40;;;;;;;29.18;19.07;;;;;;;15.77;39.21;99994.91;1609543;86;21682;-59
2022/02/25 03:23:07;;;;;;;26.80;20.48;;;;;;;15.69;39.25;99987.38;1608211;86;21581;-59
2022/02/25 03:25:33;;;;;;;25.15;20.32;;;;;;;15.70;39.12;99982.92;1612693;86;21653;-59
2022/02/25 03:28:00;;;;;;;28.52;20.35;;;;;;;15.69;39.19;99979.88;1597827;87;21038;-59
2022/02/25 03:30:26;;;;;;;26.42;19.10;;;;;;;15.74;39.15;99974.72;1615104;86;21555;-59
2022/02/25 03:32:54;;;;;;;25.08;19.23;;;;;;;15.78;39.12;99982.50;1609774;88;21876;-58
2022/02/25 03:35:20;;;;;;;21.57;17.50;;;;;;;15.80;39.19;99976.63;1611317;86;25796;-58
2022/02/25 03:37:48;;;;;;;25.40;18.70;;;;;;;15.91;39.03;99978.17;1613189;86;21550;-59
2022/02/25 03:40:15;;;;;;;24.60;19.57;;;;;;;15.94;38.87;99978.84;1614214;86;21682;-59
2022/02/25 03:42:42;;;;;;;26.12;19.45;;;;;;;15.82;38.80;99976.91;1613147;86;21586;-59
2022/02/25 03:45:09;;;;;;;24.87;18.67;;;;;;;15.84;38.87;99979.48;1611133;86;22159;-59
2022/02/25 03:47:36;;;;;;;22.70;17.92;;;;;;;15.83;39.02;99979.95;1615920;88;25684;-59
2022/02/25 03:50:04;;;;;;;23.85;19.05;;;;;;;15.91;38.86;99979.02;1612933;86;21535;-59
2022/02/25 03:52:31;;;;;;;24.80;19.32;;;;;;;15.85;38.86;99975.41;1611142;86;21639;-60
2022/02/25 03:54:57;;;;;;;27.77;19.73;;;;;;;15.91;38.65;99975.04;1604794;86;21472;-59
2022/02/25 03:57:24;;;;;;;28.17;20.45;;;;;;;15.85;38.52;99975.41;1612994;86;22120;-59
2022/02/25 03:59:50;;;;;;;25.17;19.48;;;;;;;15.81;38.63;99965.95;1606333;86;22094;-59
2022/02/25 04:02:17;;;;;;;24.55;18.27;;;;;;;15.93;38.59;99973.15;1613962;86;21539;-59
2022/02/25 04:04:44;;;;;;;29.57;19.55;;;;;;;16.01;38.59;99965.21;1607560;86;21519;-60
2022/02/25 04:07:10;;;;;;;28.00;20.57;;;;;;;15.96;38.53;99969.48;1612607;86;21022;-60
2022/02/25 04:09:38;;;;;;;24.87;19.95;;;;;;;15.89;38.50;99961.50;1607546;86;21753;-59
2022/02/25 04:12:06;;;;;;;26.85;18.70;;;;;;;15.88;38.50;99961.11;1617980;86;21499;-59
2022/02/25 04:14:33;;;;;;;24.05;18.50;;;;;;;15.91;38.38;99952.50;1608422;86;21468;-60
2022/02/25 04:16:59;;;;;;;24.25;18.77;;;;;;;15.98;38.39;99954.81;1616641;86;21472;-60
2022/02/25 04:19:26;;;;;;;24.95;18.98;;;;;;;15.97;38.47;99959.23;1617910;86;21192;-59
2022/02/25 04:21:52;;;;;;;28.12;19.57;;;;;;;15.99;38.44;99955.17;1616330;86;21855;-59
2022/02/25 04:24:19;;;;;;;27.03;20.30;;;;;;;16.00;38.32;99955.56;1603642;86;21611;-59
2022/02/25 04:26:47;;;;;;;27.10;20.52;;;;;;;15.96;38.20;99951.77;1582150;89;21538;-59
2022/02/25 04:29:13;;;;;;;24.10;18.60;;;;;;;15.91;38.17;99957.80;1627409;85;21476;-60
2022/02/25 04:31:40;;;;;;;26.75;18.62;;;;;;;15.94;38.17;99953.66;1620868;85;21565;-59
2022/02/25 04:34:07;;;;;;;24.97;19.23;;;;;;;15.86;38.34;99952.40;1635114;84;21789;-60
2022/02/25 04:36:38;;;;;;;27.50;20.40;;;;;;;15.80;38.32;99949.64;1611664;86;21533;-59
2022/02/25 04:39:06;;;;;;;26.23;20.40;;;;;;;15.75;38.39;99945.95;1634883;85;21236;-59
2022/02/25 04:41:33;;;;;;;29.70;20.45;;;;;;;15.74;38.36;99944.71;1620154;85;21507;-59
2022/02/25 04:44:00;;;;;;;30.20;20.57;;;;;;;15.82;38.15;99947.75;1622816;85;21061;-59
2022/02/25 04:46:26;;;;;;;29.65;20.88;;;;;;;15.76;38.16;99948.13;1618524;85;22114;-59
2022/02/25 04:48:54;;;;;;;31.68;21.07;;;;;;;15.83;38.09;99947.30;1594873;87;21503;-58
2022/02/25 04:51:21;;;;;;;30.12;21.10;;;;;;;15.86;38.16;99943.12;1635237;84;21073;-59
2022/02/25 04:53:49;;;;;;;29.20;22.07;;;;;;;15.94;38.11;99943.53;1615726;86;21598;-58
2022/02/25 04:56:16;;;;;;;30.85;21.00;;;;;;;15.91;38.08;99943.22;1611234;86;21456;-59
2022/02/25 04:58:44;;;;;;;26.87;19.20;;;;;;;15.95;37.88;99939.92;1616315;86;21747;-59
2022/02/25 05:01:10;;;;;;;28.42;19.95;;;;;;;15.83;37.93;99936.70;1611974;86;21503;-59
2022/02/25 05:03:37;;;;;;;24.95;18.17;;;;;;;15.87;37.97;99935.08;1612432;86;21478;-59
2022/02/25 05:06:05;;;;;;;25.37;19.07;;;;;;;15.94;37.95;99935.09;1619018;86;21006;-59
2022/02/25 05:08:32;;;;;;;27.40;20.02;;;;;;;16.02;37.84;99932.45;1615342;86;21554;-59
2022/02/25 05:10:59;;;;;;;29.20;21.07;;;;;;;15.91;37.80;99930.45;1613846;86;21751;-59
2022/02/25 05:13:26;;;;;;;27.93;21.27;;;;;;;15.86;37.82;99930.73;1634351;86;22221;-58
2022/02/25 05:21:25;;;;;;;27.77;19.92;;;;;;;15.94;37.67;99933.77;1618371;86;21615;-59
2022/02/25 05:23:52;;;;;;;26.80;19.85;;;;;;;15.95;37.55;99931.52;1621790;86;21782;-58
2022/02/25 05:26:19;;;;;;;26.70;19.77;;;;;;;15.91;37.60;99925.98;1625601;86;21681;-57
2022/02/25 05:28:45;;;;;;;29.27;20.83;;;;;;;15.96;37.55;99925.25;1621513;86;21574;-59
2022/02/25 05:31:12;;;;;;;28.20;19.62;;;;;;;15.90;37.57;99920.80;1621854;86;21067;-58
2022/02/25 05:33:39;;;;;;;25.12;18.87;;;;;;;15.89;37.54;99923.06;1625624;86;21458;-59
2022/02/25 05:36:06;;;;;;;28.30;19.55;;;;;;;15.88;37.53;99922.66;1617736;86;21996;-59
2022/02/25 05:38:33;;;;;;;30.00;19.53;;;;;;;15.93;37.48;99920.11;1619322;85;21585;-57
2022/02/25 05:41:00;;;;;;;25.55;19.40;;;;;;;15.95;37.58;99914.72;1633805;84;21597;-59
2022/02/25 05:43:27;;;;;;;27.00;19.80;;;;;;;16.05;37.51;99911.03;1630331;85;21450;-58
2022/02/25 05:45:54;;;;;;;27.97;21.07;;;;;;;15.98;37.60;99913.70;1609105;87;21375;-58
2022/02/25 05:48:20;;;;;;;28.75;19.73;;;;;;;16.03;37.48;99910.28;1628401;86;21853;-58
2022/02/25 05:50:47;;;;;;;30.97;20.95;;;;;;;16.02;37.45;99921.84;1624463;86;20990;-58
2022/02/25 05:53:14;;;;;;;29.60;20.00;;;;;;;16.06;37.26;99912.27;1624649;86;21491;-58
2022/02/25 05:55:42;;;;;;;28.87;21.05;;;;;;;16.03;37.35;99916.45;1622390;86;21531;-58
2022/02/25 05:58:08;;;;;;;25.60;19.77;;;;;;;16.19;37.32;99920.81;1628986;86;21573;-59
2022/02/25 06:00:36;;;;;;;28.98;20.72;;;;;;;16.30;37.15;99919.67;1615613;86;22103;-58
2022/02/25 06:03:02;;;;;;;30.48;21.10;;;;;;;16.29;37.02;99915.30;1635341;85;21486;-58
2022/02/25 06:05:29;;;;;;;29.48;20.25;;;;;;;16.10;37.04;99919.57;1626150;85;21647;-58
2022/02/25 06:07:59;;;;;;;31.05;20.55;;;;;;;16.06;37.13;99919.38;1636553;85;21554;-58
2022/02/25 06:10:24;;;;;;;29.63;20.72;;;;;;;16.12;37.09;99930.48;1619188;85;21559;-58
2022/02/25 06:12:51;;;;;;;29.37;20.40;;;;;;;16.14;37.14;99927.27;1633323;84;21822;-58
2022/02/25 06:18:08;;;;;;;32.17;22.55;;;;;;;14.07;42.07;99929.27;1834442;76;23301;-60
2022/02/25 06:20:34;;;;;;;31.02;21.85;;;;;;;16.05;37.65;99918.54;1802179;77;20982;-59
2022/02/25 06:23:03;;;;;;;30.52;20.17;;;;;;;16.13;37.23;99919.39;1804819;78;22112;-60
2022/02/25 06:25:30;;;;;;;27.82;20.55;;;;;;;16.12;36.97;99922.53;1804783;78;21568;-59
2022/02/25 06:27:57;;;;;;;31.97;19.00;;;;;;;16.07;36.99;99925.08;1808517;78;21458;-60
2022/02/25 06:30:23;;;;;;;27.82;19.25;;;;;;;16.07;37.04;99934.37;1801843;78;21819;-59
2022/02/25 06:32:51;;;;;;;27.60;19.17;;;;;;;16.22;37.06;99933.88;1800316;78;21432;-59
2022/02/25 06:35:18;;;;;;;27.67;19.60;;;;;;;16.31;36.82;99934.18;1777774;78;22106;-59
2022/02/25 06:37:45;;;;;;;;;;;;;;;16.26;36.77;99929.62;1796412;78;21416;-59
2022/02/25 06:40:12;;;;;;;53.08;35.28;;;;;;;16.31;36.69;99924.02;1802867;78;20555;-60
2022/02/25 06:42:40;;;;;;;41.08;27.87;;;;;;;16.26;36.38;99929.62;1794596;78;21648;-59
2022/02/25 06:45:07;;;;;;;43.05;28.62;;;;;;;16.14;36.36;99933.02;1792635;78;21459;-60
2022/02/25 06:47:34;;;;;;;53.30;29.18;;;;;;;16.06;36.53;99928.66;1811168;78;21804;-59
2022/02/25 06:50:01;;;;;;;54.53;29.85;;;;;;;16.13;36.56;99921.56;1798364;78;21510;-60
2022/02/25 06:52:27;;;;;;;40.92;25.52;;;;;;;16.21;36.46;99914.94;1801320;78;21072;-60
2022/02/25 06:54:54;;;;;;;37.73;23.70;;;;;;;16.17;36.41;99922.23;1807507;78;21494;-60
2022/02/25 06:57:21;;;;;;;34.03;22.80;;;;;;;16.10;36.26;99920.41;1740072;80;21546;-60
2022/02/25 06:59:48;;;;;;;28.12;20.00;;;;;;;16.00;36.34;99923.74;1759369;80;21853;-61
2022/02/25 07:02:14;;;;;;;26.12;18.45;;;;;;;15.92;36.39;99907.82;1740715;80;21080;-61
2022/02/25 07:04:41;;;;;;;28.92;18.48;;;;;;;15.94;36.32;99913.88;1771350;80;21747;-61
2022/02/25 07:07:08;;;;;;;22.42;16.65;;;;;;;16.02;36.49;99906.78;1729358;81;21431;-61
2022/02/25 07:09:35;;;;;;;26.25;19.32;;;;;;;16.13;36.53;99899.50;1733558;80;21546;-61
2022/02/25 07:12:02;;;;;;;27.10;19.95;;;;;;;16.24;36.34;99900.17;1758167;80;21782;-60
2022/02/25 07:14:30;;;;;;;31.42;22.10;;;;;;;16.31;36.26;99901.02;1752731;79;21516;-60
2022/02/25 07:16:57;;;;;;;26.42;19.12;;;;;;;16.31;36.23;99895.70;1759465;80;21507;-60
2022/02/25 07:19:24;;;;;;;28.62;20.62;;;;;;;16.28;36.27;99898.55;1747455;80;21593;-60
2022/02/25 07:21:51;;;;;;;27.77;19.15;;;;;;;16.26;36.22;99905.75;1739802;79;21558;-60
2022/02/25 07:24:18;;;;;;;24.95;18.92;;;;;;;16.26;36.50;99902.25;1740669;81;21901;-60
2022/02/25 07:26:45;;;;;;;31.23;19.73;;;;;;;16.38;36.58;99900.14;1735746;81;21545;-60
2022/02/25 07:29:12;;;;;;;21.30;16.50;;;;;;;16.41;36.52;99903.94;1748587;81;21499;-60
2022/02/25 07:31:38;;;;;;;24.70;18.70;;;;;;;16.51;36.34;99904.20;1723673;82;21439;-60
2022/02/25 07:34:06;;;;;;;27.62;19.60;;;;;;;16.44;36.25;99894.44;1743428;80;21519;-61
2022/02/25 07:36:33;;;;;;;;;;;;;;;16.46;36.44;99892.56;1753516;80;21725;-60
2022/02/25 07:39:00;;;;;;;29.02;19.42;;;;;;;16.48;36.22;99891.11;1753899;80;20436;-61
2022/02/25 07:41:27;;;;;;;25.23;17.75;;;;;;;16.57;36.24;99891.86;1744306;80;20989;-60
2022/02/25 07:43:55;;;;;;;26.20;18.82;;;;;;;16.54;36.46;99887.61;1745291;80;21483;-61
2022/02/25 07:46:21;;;;;;;22.42;17.70;;;;;;;16.74;36.48;99885.02;1747539;80;21531;-59
2022/02/25 07:48:48;;;;;;;26.23;19.00;;;;;;;16.95;36.10;99891.22;1719139;82;21755;-60
2022/02/25 07:51:15;;;;;;;24.57;19.70;;;;;;;16.92;35.91;99886.13;1749318;80;21680;-60
2022/02/25 07:53:45;;;;;;;24.45;19.00;;;;;;;16.85;35.93;99884.81;1755481;80;21755;-60
2022/02/25 07:56:11;;;;;;;26.45;18.00;;;;;;;16.65;36.08;99886.94;1711099;81;21515;-60
2022/02/25 07:58:38;;;;;;;25.95;18.17;;;;;;;16.62;35.98;99884.95;1727659;81;21431;-60
2022/02/25 08:01:05;;;;;;;25.08;18.23;;;;;;;16.58;35.99;99885.62;1721498;80;21926;-61
2022/02/25 08:03:32;;;;;;;24.02;17.30;;;;;;;16.64;36.15;99884.38;1722586;81;21476;-61
2022/02/25 08:05:59;;;;;;;27.13;17.60;;;;;;;16.91;36.05;99872.00;1728559;81;21497;-60
2022/02/25 08:08:26;;;;;;;26.97;18.62;;;;;;;17.00;35.74;99873.67;1729236;82;21561;-61
2022/02/25 08:10:52;;;;;;;24.50;17.73;;;;;;;17.06;35.85;99874.59;1726603;81;21573;-60
2022/02/25 08:13:20;;;;;;;24.60;17.27;;;;;;;17.22;35.72;99871.30;1726351;82;21792;-60
2022/02/25 08:15:47;;;;;;;24.80;18.67;;;;;;;17.24;35.46;99865.88;1725603;82;21625;-60
2022/02/25 08:18:14;;;;;;;27.48;19.90;;;;;;;17.29;35.29;99862.41;1791649;78;21474;-60
2022/02/25 08:20:41;;;;;;;27.60;19.30;;;;;;;17.31;35.34;99858.72;1777811;79;21412;-60
2022/02/25 08:23:09;;;;;;;25.80;17.87;;;;;;;17.20;35.44;99854.61;1784196;79;21439;-61
2022/02/25 08:25:40;;;;;;;21.85;16.55;;;;;;;17.32;35.47;99860.89;1776921;79;22148;-61
2022/02/25 08:28:06;;;;;;;26.50;18.23;;;;;;;17.41;35.24;99855.45;1763102;79;21578;-61
2022/02/25 08:30:34;;;;;;;30.68;20.05;;;;;;;17.35;35.14;99853.18;1771426;79;21601;-60
2022/02/25 08:33:02;;;;;;;26.68;19.30;;;;;;;17.53;35.06;99855.08;1789472;78;21483;-61
2022/02/25 08:35:30;;;;;;;23.15;18.55;;;;;;;17.60;34.80;99853.70;1786714;78;21558;-60
2022/02/25 08:37:57;;;;;;;25.77;18.42;;;;;;;17.66;34.53;99840.83;1773095;79;22053;-60
2022/02/25 08:40:25;;;;;;;26.95;18.37;;;;;;;17.73;34.29;99836.44;1775731;79;21079;-60
2022/02/25 08:42:52;;;;;;;25.43;17.77;;;;;;;17.74;34.36;99832.31;1773428;78;21101;-60
2022/02/25 08:45:19;;;;;;;20.43;15.70;;;;;;;17.98;34.18;99830.27;1773036;78;21554;-59
2022/02/25 08:47:46;;;;;;;22.95;15.78;;;;;;;17.97;33.45;99831.22;1791685;78;21470;-59
2022/02/25 08:50:14;;;;;;;21.60;15.97;;;;;;;18.09;33.52;99837.86;1759212;78;21783;-60
2022/02/25 08:52:42;;;;;;;;;;;;;;;18.29;33.26;99828.45;1790919;78;21410;-59
2022/02/25 08:55:10;;;;;;;18.95;14.28;;;;;;;18.56;33.36;99827.90;1783346;78;20182;-60
2022/02/25 08:57:37;;;;;;;17.48;13.83;;;;;;;18.63;33.04;99824.67;1790400;78;21523;-60
2022/02/25 09:00:11;;;;;;;18.98;14.50;;;;;;;18.78;32.92;99835.14;1791679;78;21521;-60
2022/02/25 09:02:39;;;;;;;15.00;12.95;;;;;;;18.51;32.85;99832.21;1795919;78;21578;-61
2022/02/25 09:05:06;;;;;;;18.48;15.00;;;;;;;18.41;32.10;99825.37;1771464;79;21485;-60
2022/02/25 09:07:33;;;;;;;19.07;14.50;;;;;;;18.37;32.35;99819.08;1789089;78;21080;-60
2022/02/25 09:10:00;;;;;;;15.70;13.10;;;;;;;18.45;32.38;99826.85;1791137;78;21404;-59
2022/02/25 09:12:27;;;;;;;14.58;12.55;;;;;;;18.53;32.29;99829.44;1790591;79;21459;-59
2022/02/25 09:14:54;;;;;;;15.48;12.93;;;;;;;18.42;31.64;99831.09;1780619;78;21536;-61
2022/02/25 09:17:21;;;;;;;15.18;12.45;;;;;;;18.36;31.69;99824.02;1775543;79;21755;-60
2022/02/25 09:19:48;;;;;;;14.03;11.75;;;;;;;18.27;31.56;99826.39;1779742;78;21444;-60
2022/02/25 09:22:15;;;;;;;12.78;9.83;;;;;;;18.14;31.31;99830.89;1780554;79;21512;-60
2022/02/25 09:24:42;;;;;;;16.40;10.60;;;;;;;17.71;31.49;99800.64;1792207;79;21518;-60
2022/02/25 09:27:09;;;;;;;13.20;11.28;;;;;;;17.87;31.41;99832.34;1791956;79;21904;-60
2022/02/25 09:29:35;;;;;;;15.58;12.03;;;;;;;17.72;31.27;99828.91;1794664;78;21556;-60
2022/02/25 09:32:04;;;;;;;13.13;10.25;;;;;;;17.44;31.61;99817.55;1798337;78;21424;-60
2022/02/25 09:34:31;;;;;;;11.35;10.15;;;;;;;17.31;31.23;99816.20;1730556;82;21526;-59
2022/02/25 09:36:58;;;;;;;14.18;10.35;;;;;;;17.47;31.11;99815.15;1752513;80;21487;-60
2022/02/25 09:39:24;;;;;;;15.30;9.88;;;;;;;17.36;31.21;99806.58;1789844;79;21720;-60
2022/02/25 09:41:51;;;;;;;12.63;10.18;;;;;;;17.28;31.00;99807.59;1795523;78;21813;-59
2022/02/25 09:44:20;;;;;;;12.18;10.32;;;;;;;17.29;30.99;99806.16;1789326;79;21490;-60
2022/02/25 09:46:47;;;;;;;13.32;10.82;;;;;;;17.47;30.93;99801.38;1798204;78;21446;-59
2022/02/25 09:49:14;;;;;;;11.03;9.83;;;;;;;17.67;31.01;99800.00;1782847;78;20990;-60
2022/02/25 09:51:41;;;;;;;10.60;9.43;;;;;;;17.57;30.75;99794.09;1788229;79;22050;-60
2022/02/25 09:54:08;;;;;;;12.10;10.27;;;;;;;17.87;30.11;99792.45;1796022;78;21675;-63
2022/02/25 09:56:36;;;;;;;12.43;10.80;;;;;;;17.81;30.25;99785.72;1791904;78;21566;-61
2022/02/25 09:59:03;;;;;;;13.18;10.95;;;;;;;17.92;30.26;99780.17;1792557;78;21115;-59
2022/02/25 10:01:34;;;;;;;12.13;10.93;;;;;;;18.64;29.70;99778.91;1788109;79;21013;-59
2022/02/25 10:04:22;;;;;;;12.90;10.03;;;;;;;19.22;29.12;99769.70;1790412;78;21561;-60
2022/02/25 10:06:49;;;;;;;10.40;9.33;;;;;;;19.36;29.15;99761.47;1787494;78;21430;-60
2022/02/25 10:09:35;;;;;;;9.23;8.05;;;;;;;19.18;28.72;99757.09;1793640;78;21506;-60
2022/02/25 10:12:06;;;;;;;12.15;8.70;;;;;;;19.40;28.49;99750.09;1789617;79;21456;-60
2022/02/25 10:14:37;;;;;;;11.12;8.93;;;;;;;19.69;28.31;99742.48;1791013;78;21486;-60
2022/02/25 10:17:12;;;;;;;11.05;9.90;;;;;;;19.94;27.67;99741.89;1792838;78;21755;-60
2022/02/25 10:19:44;;;;;;;10.68;9.50;;;;;;;20.00;27.95;99727.58;1798248;78;21509;-60
2022/02/25 10:22:31;;;;;;;10.35;9.25;;;;;;;20.15;27.83;99725.45;1803683;78;21479;-60
2022/02/25 10:25:00;;;;;;;;;;;;;;;19.95;27.61;99717.75;1807847;78;21521;-60
2022/02/25 10:27:31;;;;;;;11.48;9.80;;;;;;;19.50;27.32;99720.91;1809847;78;20466;-61
2022/02/25 10:30:14;;;;;;;11.05;9.80;;;;;;;19.51;27.87;99719.44;1801972;78;21644;-60
2022/02/25 10:32:47;;;;;;;39.45;28.07;;;;;;;19.57;27.90;99714.97;1805493;78;20954;-61
2022/02/25 10:35:33;;;;;;;64.42;44.38;;;;;;;19.34;27.88;99718.59;1803763;78;21586;-60
2022/02/25 10:38:12;;;;;;;23.40;17.30;;;;;;;19.26;28.09;99717.36;1804618;78;21525;-58
2022/02/25 10:40:44;;;;;;;55.83;38.02;;;;;;;19.28;28.13;99711.91;1809003;78;21418;-60
2022/02/25 10:43:26;;;;;;;32.70;29.48;;;;;;;19.36;28.03;99706.82;1809346;78;21881;-61
2022/02/25 10:45:56;;;;;;;47.65;32.05;;;;;;;19.39;27.74;99714.59;1805316;78;21528;-61
2022/02/25 10:48:30;;;;;;;13.43;11.60;;;;;;;19.42;27.86;99711.70;1802778;78;21827;-60
2022/02/25 10:51:06;;;;;;;11.18;9.90;;;;;;;19.55;27.69;99707.58;1802639;78;21481;-60
2022/02/25 10:53:43;;;;;;;12.47;10.48;;;;;;;19.43;27.68;99705.38;1809308;78;21549;-61
2022/02/25 10:56:12;;;;;;;48.00;29.82;;;;;;;19.35;27.83;99701.14;1799704;78;21454;-60
2022/02/25 10:58:50;;;;;;;17.98;13.50;;;;;;;19.23;27.92;99691.42;1809987;78;20977;-61
2022/02/25 11:01:22;;;;;;;11.20;10.00;;;;;;;19.36;27.95;99683.32;1804653;78;21498;-60
2022/02/25 11:04:09;;;;;;;13.95;11.83;;;;;;;19.33;27.93;99681.76;1805419;78;21441;-60
2022/02/25 11:06:36;;;;;;;22.45;16.05;;;;;;;19.35;27.94;99674.48;1800911;78;21498;-61
2022/02/25 11:09:05;;;;;;;11.60;9.05;;;;;;;19.49;27.96;99658.72;1811539;78;21850;-61
2022/02/25 11:11:34;;;;;;;;;;;;;;;19.77;28.03;99649.87;1809211;78;21632;-61
2022/02/25 11:14:05;;;;;;;53.95;29.37;;;;;;;19.81;27.47;99649.48;1807000;78;20548;-60
2022/02/25 11:16:33;;;;;;;26.02;18.17;;;;;;;19.89;27.60;99646.68;1799645;78;21079;-61
2022/02/25 11:19:02;;;;;;;19.10;16.50;;;;;;;19.69;27.65;99646.95;1799092;78;21601;-61
2022/02/25 11:21:30;;;;;;;10.30;8.85;;;;;;;19.73;27.46;99645.27;1791724;78;21798;-60
2022/02/25 11:23:57;;;;;;;12.73;10.05;;;;;;;19.74;27.62;99643.44;1791723;78;21860;-61
2022/02/25 11:26:24;;;;;;;17.55;12.05;;;;;;;20.17;27.63;99635.45;1793591;78;21506;-60
2022/02/25 11:28:51;;;;;;;134.05;119.08;;;;;;;20.63;27.41;99638.78;1795000;78;21936;-61